sensor_id;sensor_type;location;lat;lon;timestamp;P1;durP1;ratioP1;P2;durP2;ratioP2
76290;SDS011;65100;46.884;17.410;2023-11-21T00:00:21;23.77;;;12.30;;
76290;SDS011;65100;46.884;17.410;2023-11-21T00:02:47;24.60;;;12.77;;
76290;SDS011;65100;46.884;17.410;2023-11-21T00:05:13;25.27;;;12.10;;
76290;SDS011;65100;46.884;17.410;2023-11-21T00:07:39;26.15;;;12.75;;
76290;SDS011;65100;46.884;17.410;2023-11-21T00:10:05;25.63;;;12.75;;
76290;SDS011;65100;46.884;17.410;2023-11-21T00:12:33;26.63;;;13.33;;
76290;SDS011;65100;46.884;17.410;2023-11-21T00:14:59;27.48;;;13.63;;
76290;SDS011;65100;46.884;17.410;2023-11-21T00:17:24;27.70;;;13.80;;
76290;SDS011;65100;46.884;17.410;2023-11-21T00:19:50;27.53;;;13.30;;
76290;SDS011;65100;46.884;17.410;2023-11-21T00:22:18;29.48;;;13.43;;
76290;SDS011;65100;46.884;17.410;2023-11-21T00:24:44;28.00;;;13.70;;
76290;SDS011;65100;46.884;17.410;2023-11-21T00:27:10;26.53;;;13.33;;
76290;SDS011;65100;46.884;17.410;2023-11-21T00:29:35;27.73;;;13.60;;
76290;SDS011;65100;46.884;17.410;2023-11-21T00:32:01;29.42;;;13.45;;
76290;SDS011;65100;46.884;17.410;2023-11-21T00:34:27;26.30;;;13.33;;
76290;SDS011;65100;46.884;17.410;2023-11-21T00:36:52;25.83;;;13.00;;
76290;SDS011;65100;46.884;17.410;2023-11-21T00:39:18;25.25;;;12.95;;
76290;SDS011;65100;46.884;17.410;2023-11-21T00:41:43;24.90;;;12.90;;
76290;SDS011;65100;46.884;17.410;2023-11-21T00:44:10;26.23;;;12.32;;
76290;SDS011;65100;46.884;17.410;2023-11-21T00:46:35;24.30;;;12.73;;
76290;SDS011;65100;46.884;17.410;2023-11-21T00:49:02;26.33;;;12.93;;
76290;SDS011;65100;46.884;17.410;2023-11-21T00:51:29;22.48;;;12.10;;
76290;SDS011;65100;46.884;17.410;2023-11-21T00:53:55;25.55;;;12.98;;
76290;SDS011;65100;46.884;17.410;2023-11-21T00:56:20;24.33;;;11.63;;
76290;SDS011;65100;46.884;17.410;2023-11-21T00:58:46;25.15;;;12.38;;
76290;SDS011;65100;46.884;17.410;2023-11-21T01:01:15;22.85;;;11.55;;
76290;SDS011;65100;46.884;17.410;2023-11-21T01:03:41;22.85;;;12.07;;
76290;SDS011;65100;46.884;17.410;2023-11-21T01:06:06;21.73;;;11.73;;
76290;SDS011;65100;46.884;17.410;2023-11-21T01:08:32;23.10;;;11.80;;
76290;SDS011;65100;46.884;17.410;2023-11-21T01:10:57;22.87;;;11.27;;
76290;SDS011;65100;46.884;17.410;2023-11-21T01:13:23;22.67;;;10.43;;
76290;SDS011;65100;46.884;17.410;2023-11-21T01:15:48;23.57;;;12.23;;
76290;SDS011;65100;46.884;17.410;2023-11-21T01:18:14;22.90;;;11.95;;
76290;SDS011;65100;46.884;17.410;2023-11-21T01:20:39;24.00;;;12.33;;
76290;SDS011;65100;46.884;17.410;2023-11-21T01:23:05;23.77;;;12.67;;
76290;SDS011;65100;46.884;17.410;2023-11-21T01:25:30;22.40;;;11.57;;
76290;SDS011;65100;46.884;17.410;2023-11-21T01:27:56;23.03;;;12.10;;
76290;SDS011;65100;46.884;17.410;2023-11-21T01:30:21;23.07;;;11.97;;
76290;SDS011;65100;46.884;17.410;2023-11-21T01:32:46;22.73;;;11.73;;
76290;SDS011;65100;46.884;17.410;2023-11-21T01:35:12;23.48;;;11.77;;
76290;SDS011;65100;46.884;17.410;2023-11-21T01:37:38;23.07;;;12.57;;
76290;SDS011;65100;46.884;17.410;2023-11-21T01:40:04;24.88;;;12.50;;
76290;SDS011;65100;46.884;17.410;2023-11-21T01:42:34;24.20;;;12.05;;
76290;SDS011;65100;46.884;17.410;2023-11-21T01:45:00;25.23;;;12.60;;
76290;SDS011;65100;46.884;17.410;2023-11-21T01:47:29;22.65;;;11.15;;
76290;SDS011;65100;46.884;17.410;2023-11-21T01:49:55;22.02;;;11.82;;
76290;SDS011;65100;46.884;17.410;2023-11-21T01:52:21;24.10;;;12.17;;
76290;SDS011;65100;46.884;17.410;2023-11-21T01:54:47;22.27;;;11.27;;
76290;SDS011;65100;46.884;17.410;2023-11-21T01:57:12;24.50;;;12.60;;
76290;SDS011;65100;46.884;17.410;2023-11-21T01:59:39;24.20;;;12.18;;
76290;SDS011;65100;46.884;17.410;2023-11-21T02:02:07;24.17;;;12.73;;
76290;SDS011;65100;46.884;17.410;2023-11-21T02:04:33;23.65;;;12.48;;
76290;SDS011;65100;46.884;17.410;2023-11-21T02:06:59;24.87;;;11.87;;
76290;SDS011;65100;46.884;17.410;2023-11-21T02:09:26;21.83;;;11.40;;
76290;SDS011;65100;46.884;17.410;2023-11-21T02:11:52;22.65;;;11.50;;
76290;SDS011;65100;46.884;17.410;2023-11-21T02:14:21;22.85;;;11.55;;
76290;SDS011;65100;46.884;17.410;2023-11-21T02:16:48;21.40;;;12.13;;
76290;SDS011;65100;46.884;17.410;2023-11-21T02:19:15;21.60;;;11.67;;
76290;SDS011;65100;46.884;17.410;2023-11-21T02:21:54;21.48;;;11.50;;
76290;SDS011;65100;46.884;17.410;2023-11-21T02:24:23;22.20;;;12.05;;
76290;SDS011;65100;46.884;17.410;2023-11-21T02:26:49;26.00;;;11.70;;
76290;SDS011;65100;46.884;17.410;2023-11-21T02:29:20;23.43;;;11.37;;
76290;SDS011;65100;46.884;17.410;2023-11-21T02:31:55;22.05;;;10.93;;
76290;SDS011;65100;46.884;17.410;2023-11-21T02:34:21;22.60;;;12.10;;
76290;SDS011;65100;46.884;17.410;2023-11-21T02:36:47;22.93;;;12.57;;
76290;SDS011;65100;46.884;17.410;2023-11-21T02:39:16;22.02;;;11.93;;
76290;SDS011;65100;46.884;17.410;2023-11-21T02:41:43;24.02;;;11.90;;
76290;SDS011;65100;46.884;17.410;2023-11-21T02:44:09;23.02;;;12.18;;
76290;SDS011;65100;46.884;17.410;2023-11-21T02:46:35;23.80;;;12.73;;
76290;SDS011;65100;46.884;17.410;2023-11-21T02:49:01;25.92;;;12.35;;
76290;SDS011;65100;46.884;17.410;2023-11-21T02:51:35;24.52;;;12.38;;
76290;SDS011;65100;46.884;17.410;2023-11-21T02:54:01;24.95;;;12.68;;
76290;SDS011;65100;46.884;17.410;2023-11-21T02:56:30;26.15;;;13.40;;
76290;SDS011;65100;46.884;17.410;2023-11-21T02:58:55;25.37;;;13.03;;
76290;SDS011;65100;46.884;17.410;2023-11-21T03:01:21;25.40;;;12.97;;
76290;SDS011;65100;46.884;17.410;2023-11-21T03:03:48;26.38;;;12.80;;
76290;SDS011;65100;46.884;17.410;2023-11-21T03:06:16;24.15;;;13.35;;
76290;SDS011;65100;46.884;17.410;2023-11-21T03:08:42;23.83;;;12.43;;
76290;SDS011;65100;46.884;17.410;2023-11-21T03:11:08;24.87;;;12.97;;
76290;SDS011;65100;46.884;17.410;2023-11-21T03:13:33;25.87;;;13.13;;
76290;SDS011;65100;46.884;17.410;2023-11-21T03:15:58;25.30;;;13.70;;
76290;SDS011;65100;46.884;17.410;2023-11-21T03:18:24;24.30;;;13.20;;
76290;SDS011;65100;46.884;17.410;2023-11-21T03:20:52;26.20;;;13.27;;
76290;SDS011;65100;46.884;17.410;2023-11-21T03:23:18;23.50;;;12.88;;
76290;SDS011;65100;46.884;17.410;2023-11-21T03:25:43;24.53;;;12.97;;
76290;SDS011;65100;46.884;17.410;2023-11-21T03:28:09;27.65;;;12.98;;
76290;SDS011;65100;46.884;17.410;2023-11-21T03:30:34;24.67;;;12.60;;
76290;SDS011;65100;46.884;17.410;2023-11-21T03:33:00;26.93;;;13.00;;
76290;SDS011;65100;46.884;17.410;2023-11-21T03:35:25;23.98;;;12.60;;
76290;SDS011;65100;46.884;17.410;2023-11-21T03:37:51;24.87;;;13.27;;
76290;SDS011;65100;46.884;17.410;2023-11-21T03:40:17;26.10;;;13.23;;
76290;SDS011;65100;46.884;17.410;2023-11-21T03:42:42;27.55;;;12.93;;
76290;SDS011;65100;46.884;17.410;2023-11-21T03:45:07;24.53;;;12.87;;
76290;SDS011;65100;46.884;17.410;2023-11-21T03:47:33;24.15;;;12.90;;
76290;SDS011;65100;46.884;17.410;2023-11-21T03:49:59;23.77;;;12.93;;
76290;SDS011;65100;46.884;17.410;2023-11-21T03:52:25;25.42;;;13.02;;
76290;SDS011;65100;46.884;17.410;2023-11-21T03:54:50;23.50;;;12.10;;
76290;SDS011;65100;46.884;17.410;2023-11-21T03:57:16;23.97;;;12.33;;
76290;SDS011;65100;46.884;17.410;2023-11-21T03:59:42;23.38;;;12.95;;
76290;SDS011;65100;46.884;17.410;2023-11-21T04:02:08;25.67;;;13.68;;
76290;SDS011;65100;46.884;17.410;2023-11-21T04:04:34;26.10;;;13.80;;
76290;SDS011;65100;46.884;17.410;2023-11-21T04:07:00;25.92;;;14.55;;
76290;SDS011;65100;46.884;17.410;2023-11-21T04:09:25;24.93;;;13.87;;
76290;SDS011;65100;46.884;17.410;2023-11-21T04:11:51;25.08;;;12.75;;
76290;SDS011;65100;46.884;17.410;2023-11-21T04:14:17;25.23;;;13.13;;
76290;SDS011;65100;46.884;17.410;2023-11-21T04:16:43;24.77;;;12.82;;
76290;SDS011;65100;46.884;17.410;2023-11-21T04:19:09;25.08;;;13.15;;
76290;SDS011;65100;46.884;17.410;2023-11-21T04:21:35;24.70;;;13.63;;
76290;SDS011;65100;46.884;17.410;2023-11-21T04:24:01;25.65;;;13.25;;
76290;SDS011;65100;46.884;17.410;2023-11-21T04:26:27;23.57;;;12.20;;
76290;SDS011;65100;46.884;17.410;2023-11-21T04:28:52;23.53;;;12.97;;
76290;SDS011;65100;46.884;17.410;2023-11-21T04:31:17;22.27;;;12.30;;
76290;SDS011;65100;46.884;17.410;2023-11-21T04:33:43;25.83;;;13.70;;
76290;SDS011;65100;46.884;17.410;2023-11-21T04:36:09;28.35;;;14.88;;
76290;SDS011;65100;46.884;17.410;2023-11-21T04:38:35;26.00;;;14.00;;
76290;SDS011;65100;46.884;17.410;2023-11-21T04:41:01;26.40;;;13.85;;
76290;SDS011;65100;46.884;17.410;2023-11-21T04:43:26;26.93;;;13.30;;
76290;SDS011;65100;46.884;17.410;2023-11-21T04:45:52;25.90;;;13.50;;
76290;SDS011;65100;46.884;17.410;2023-11-21T04:48:17;28.33;;;14.00;;
76290;SDS011;65100;46.884;17.410;2023-11-21T04:50:42;24.93;;;13.40;;
76290;SDS011;65100;46.884;17.410;2023-11-21T04:53:08;25.47;;;13.23;;
76290;SDS011;65100;46.884;17.410;2023-11-21T04:55:33;26.73;;;12.47;;
76290;SDS011;65100;46.884;17.410;2023-11-21T04:57:59;24.52;;;13.20;;
76290;SDS011;65100;46.884;17.410;2023-11-21T05:00:24;25.80;;;13.77;;
76290;SDS011;65100;46.884;17.410;2023-11-21T05:02:50;26.53;;;13.53;;
76290;SDS011;65100;46.884;17.410;2023-11-21T05:05:15;27.17;;;14.35;;
76290;SDS011;65100;46.884;17.410;2023-11-21T05:07:41;28.13;;;14.90;;
76290;SDS011;65100;46.884;17.410;2023-11-21T05:10:07;30.13;;;14.65;;
76290;SDS011;65100;46.884;17.410;2023-11-21T05:12:36;31.05;;;14.77;;
76290;SDS011;65100;46.884;17.410;2023-11-21T05:15:05;31.20;;;15.13;;
76290;SDS011;65100;46.884;17.410;2023-11-21T05:17:38;29.02;;;14.75;;
76290;SDS011;65100;46.884;17.410;2023-11-21T05:20:07;25.75;;;13.70;;
76290;SDS011;65100;46.884;17.410;2023-11-21T05:22:35;30.08;;;15.40;;
76290;SDS011;65100;46.884;17.410;2023-11-21T05:25:01;28.30;;;14.77;;
76290;SDS011;65100;46.884;17.410;2023-11-21T05:27:28;27.58;;;14.65;;
76290;SDS011;65100;46.884;17.410;2023-11-21T05:29:56;30.15;;;15.90;;
76290;SDS011;65100;46.884;17.410;2023-11-21T05:32:23;29.60;;;14.83;;
76290;SDS011;65100;46.884;17.410;2023-11-21T05:34:49;27.60;;;15.07;;
76290;SDS011;65100;46.884;17.410;2023-11-21T05:37:14;30.90;;;16.33;;
76290;SDS011;65100;46.884;17.410;2023-11-21T05:42:31;28.27;;;14.50;;
76290;SDS011;65100;46.884;17.410;2023-11-21T05:45:17;29.67;;;14.52;;
76290;SDS011;65100;46.884;17.410;2023-11-21T05:47:44;28.90;;;15.93;;
76290;SDS011;65100;46.884;17.410;2023-11-21T05:50:11;31.92;;;17.25;;
76290;SDS011;65100;46.884;17.410;2023-11-21T05:52:42;30.15;;;16.08;;
76290;SDS011;65100;46.884;17.410;2023-11-21T05:55:09;26.70;;;14.93;;
76290;SDS011;65100;46.884;17.410;2023-11-21T05:57:36;34.92;;;15.85;;
76290;SDS011;65100;46.884;17.410;2023-11-21T06:00:06;31.90;;;15.65;;
76290;SDS011;65100;46.884;17.410;2023-11-21T06:02:50;28.25;;;14.52;;
76290;SDS011;65100;46.884;17.410;2023-11-21T06:05:18;35.55;;;17.60;;
76290;SDS011;65100;46.884;17.410;2023-11-21T06:07:44;34.00;;;17.00;;
76290;SDS011;65100;46.884;17.410;2023-11-21T06:10:10;31.85;;;16.02;;
76290;SDS011;65100;46.884;17.410;2023-11-21T06:12:38;40.53;;;15.48;;
76290;SDS011;65100;46.884;17.410;2023-11-21T06:15:05;28.57;;;15.27;;
76290;SDS011;65100;46.884;17.410;2023-11-21T06:17:33;26.88;;;14.27;;
76290;SDS011;65100;46.884;17.410;2023-11-21T06:20:05;27.15;;;14.07;;
76290;SDS011;65100;46.884;17.410;2023-11-21T06:22:37;23.85;;;13.05;;
76290;SDS011;65100;46.884;17.410;2023-11-21T06:25:04;27.83;;;13.20;;
76290;SDS011;65100;46.884;17.410;2023-11-21T06:27:33;23.30;;;12.60;;
76290;SDS011;65100;46.884;17.410;2023-11-21T06:30:09;25.50;;;13.45;;
76290;SDS011;65100;46.884;17.410;2023-11-21T06:32:37;24.98;;;13.02;;
76290;SDS011;65100;46.884;17.410;2023-11-21T06:35:03;25.95;;;14.32;;
76290;SDS011;65100;46.884;17.410;2023-11-21T06:37:29;26.83;;;13.70;;
76290;SDS011;65100;46.884;17.410;2023-11-21T06:39:56;30.10;;;14.23;;
76290;SDS011;65100;46.884;17.410;2023-11-21T06:42:23;26.92;;;14.57;;
76290;SDS011;65100;46.884;17.410;2023-11-21T06:44:49;29.02;;;14.38;;
76290;SDS011;65100;46.884;17.410;2023-11-21T06:47:16;28.80;;;15.27;;
76290;SDS011;65100;46.884;17.410;2023-11-21T06:49:42;33.33;;;16.67;;
76290;SDS011;65100;46.884;17.410;2023-11-21T06:52:08;31.80;;;15.40;;
76290;SDS011;65100;46.884;17.410;2023-11-21T06:54:34;30.95;;;16.23;;
76290;SDS011;65100;46.884;17.410;2023-11-21T06:57:00;33.07;;;16.30;;
76290;SDS011;65100;46.884;17.410;2023-11-21T06:59:28;32.83;;;16.88;;
76290;SDS011;65100;46.884;17.410;2023-11-21T07:01:53;33.15;;;16.63;;
76290;SDS011;65100;46.884;17.410;2023-11-21T07:04:19;34.93;;;16.70;;
76290;SDS011;65100;46.884;17.410;2023-11-21T07:06:45;31.80;;;16.52;;
76290;SDS011;65100;46.884;17.410;2023-11-21T07:09:10;37.20;;;17.50;;
76290;SDS011;65100;46.884;17.410;2023-11-21T07:11:36;34.35;;;17.20;;
76290;SDS011;65100;46.884;17.410;2023-11-21T07:14:03;31.33;;;16.20;;
76290;SDS011;65100;46.884;17.410;2023-11-21T07:16:33;34.20;;;18.57;;
76290;SDS011;65100;46.884;17.410;2023-11-21T07:19:05;34.50;;;18.60;;
76290;SDS011;65100;46.884;17.410;2023-11-21T07:21:34;34.78;;;17.77;;
76290;SDS011;65100;46.884;17.410;2023-11-21T07:24:02;28.50;;;15.77;;
76290;SDS011;65100;46.884;17.410;2023-11-21T07:26:29;27.35;;;14.85;;
76290;SDS011;65100;46.884;17.410;2023-11-21T07:28:55;27.87;;;14.73;;
76290;SDS011;65100;46.884;17.410;2023-11-21T07:31:21;29.83;;;15.15;;
76290;SDS011;65100;46.884;17.410;2023-11-21T07:33:47;34.92;;;17.30;;
76290;SDS011;65100;46.884;17.410;2023-11-21T07:36:13;33.83;;;16.23;;
76290;SDS011;65100;46.884;17.410;2023-11-21T07:38:39;29.23;;;15.43;;
76290;SDS011;65100;46.884;17.410;2023-11-21T07:41:05;33.63;;;16.00;;
76290;SDS011;65100;46.884;17.410;2023-11-21T07:43:33;33.53;;;17.08;;
76290;SDS011;65100;46.884;17.410;2023-11-21T07:46:03;32.45;;;16.92;;
76290;SDS011;65100;46.884;17.410;2023-11-21T07:48:30;24.57;;;13.30;;
76290;SDS011;65100;46.884;17.410;2023-11-21T07:50:56;27.85;;;13.18;;
76290;SDS011;65100;46.884;17.410;2023-11-21T07:53:23;34.42;;;16.60;;
76290;SDS011;65100;46.884;17.410;2023-11-21T07:55:54;30.42;;;15.10;;
76290;SDS011;65100;46.884;17.410;2023-11-21T07:58:19;31.05;;;15.98;;
76290;SDS011;65100;46.884;17.410;2023-11-21T08:00:45;29.80;;;16.30;;
76290;SDS011;65100;46.884;17.410;2023-11-21T08:03:10;28.50;;;14.83;;
76290;SDS011;65100;46.884;17.410;2023-11-21T08:05:36;28.25;;;15.20;;
76290;SDS011;65100;46.884;17.410;2023-11-21T08:08:02;31.67;;;15.77;;
76290;SDS011;65100;46.884;17.410;2023-11-21T08:10:27;31.65;;;16.75;;
76290;SDS011;65100;46.884;17.410;2023-11-21T08:12:53;26.30;;;14.27;;
76290;SDS011;65100;46.884;17.410;2023-11-21T08:15:18;26.93;;;14.57;;
76290;SDS011;65100;46.884;17.410;2023-11-21T08:17:44;24.92;;;13.55;;
76290;SDS011;65100;46.884;17.410;2023-11-21T08:20:11;27.60;;;14.27;;
76290;SDS011;65100;46.884;17.410;2023-11-21T08:22:37;27.67;;;14.90;;
76290;SDS011;65100;46.884;17.410;2023-11-21T08:25:02;26.95;;;13.95;;
76290;SDS011;65100;46.884;17.410;2023-11-21T08:27:31;24.98;;;13.40;;
76290;SDS011;65100;46.884;17.410;2023-11-21T08:29:56;25.30;;;13.43;;
76290;SDS011;65100;46.884;17.410;2023-11-21T08:32:22;24.23;;;13.07;;
76290;SDS011;65100;46.884;17.410;2023-11-21T08:34:47;24.23;;;13.38;;
76290;SDS011;65100;46.884;17.410;2023-11-21T08:37:16;23.48;;;13.05;;
76290;SDS011;65100;46.884;17.410;2023-11-21T08:39:43;22.63;;;13.17;;
76290;SDS011;65100;46.884;17.410;2023-11-21T08:42:09;26.17;;;12.93;;
76290;SDS011;65100;46.884;17.410;2023-11-21T08:44:34;24.00;;;13.13;;
76290;SDS011;65100;46.884;17.410;2023-11-21T08:46:59;23.92;;;12.70;;
76290;SDS011;65100;46.884;17.410;2023-11-21T08:49:25;24.77;;;12.60;;
76290;SDS011;65100;46.884;17.410;2023-11-21T08:51:52;23.42;;;12.27;;
76290;SDS011;65100;46.884;17.410;2023-11-21T08:54:20;26.70;;;13.87;;
76290;SDS011;65100;46.884;17.410;2023-11-21T08:56:46;27.80;;;14.60;;
76290;SDS011;65100;46.884;17.410;2023-11-21T08:59:11;27.07;;;13.70;;
76290;SDS011;65100;46.884;17.410;2023-11-21T09:01:39;49.72;;;20.10;;
76290;SDS011;65100;46.884;17.410;2023-11-21T09:04:05;32.47;;;15.75;;
76290;SDS011;65100;46.884;17.410;2023-11-21T09:06:31;27.37;;;13.60;;
76290;SDS011;65100;46.884;17.410;2023-11-21T09:08:57;26.27;;;12.68;;
76290;SDS011;65100;46.884;17.410;2023-11-21T09:11:23;23.55;;;11.90;;
76290;SDS011;65100;46.884;17.410;2023-11-21T09:13:50;22.57;;;11.43;;
76290;SDS011;65100;46.884;17.410;2023-11-21T09:16:16;28.27;;;12.60;;
76290;SDS011;65100;46.884;17.410;2023-11-21T09:18:42;26.75;;;12.23;;
76290;SDS011;65100;46.884;17.410;2023-11-21T09:21:07;24.30;;;12.63;;
76290;SDS011;65100;46.884;17.410;2023-11-21T09:23:33;28.13;;;14.43;;
76290;SDS011;65100;46.884;17.410;2023-11-21T09:25:59;23.50;;;12.45;;
76290;SDS011;65100;46.884;17.410;2023-11-21T09:28:26;21.98;;;11.85;;
76290;SDS011;65100;46.884;17.410;2023-11-21T09:30:52;26.43;;;11.50;;
76290;SDS011;65100;46.884;17.410;2023-11-21T09:33:18;24.98;;;11.70;;
76290;SDS011;65100;46.884;17.410;2023-11-21T09:35:44;24.45;;;13.00;;
76290;SDS011;65100;46.884;17.410;2023-11-21T09:38:09;27.97;;;13.27;;
76290;SDS011;65100;46.884;17.410;2023-11-21T09:40:35;31.25;;;14.85;;
76290;SDS011;65100;46.884;17.410;2023-11-21T09:43:03;25.25;;;11.93;;
76290;SDS011;65100;46.884;17.410;2023-11-21T09:45:34;27.83;;;12.93;;
76290;SDS011;65100;46.884;17.410;2023-11-21T09:48:01;25.53;;;13.93;;
76290;SDS011;65100;46.884;17.410;2023-11-21T09:50:27;25.08;;;13.23;;
76290;SDS011;65100;46.884;17.410;2023-11-21T09:55:50;22.00;;;11.50;;
76290;SDS011;65100;46.884;17.410;2023-11-21T09:58:17;23.30;;;12.70;;
76290;SDS011;65100;46.884;17.410;2023-11-21T10:00:44;19.60;;;10.07;;
76290;SDS011;65100;46.884;17.410;2023-11-21T10:03:11;20.45;;;10.50;;
76290;SDS011;65100;46.884;17.410;2023-11-21T10:05:38;21.45;;;11.13;;
76290;SDS011;65100;46.884;17.410;2023-11-21T10:08:10;21.80;;;11.88;;
76290;SDS011;65100;46.884;17.410;2023-11-21T10:10:37;24.60;;;12.47;;
76290;SDS011;65100;46.884;17.410;2023-11-21T10:13:06;27.38;;;12.45;;
76290;SDS011;65100;46.884;17.410;2023-11-21T10:15:35;18.35;;;9.00;;
76290;SDS011;65100;46.884;17.410;2023-11-21T10:18:04;17.00;;;7.80;;
76290;SDS011;65100;46.884;17.410;2023-11-21T10:20:32;15.43;;;7.77;;
76290;SDS011;65100;46.884;17.410;2023-11-21T10:22:59;16.42;;;8.30;;
76290;SDS011;65100;46.884;17.410;2023-11-21T10:25:27;17.73;;;9.13;;
76290;SDS011;65100;46.884;17.410;2023-11-21T10:27:57;17.97;;;8.13;;
76290;SDS011;65100;46.884;17.410;2023-11-21T10:30:31;17.65;;;8.18;;
76290;SDS011;65100;46.884;17.410;2023-11-21T10:33:02;17.45;;;9.02;;
76290;SDS011;65100;46.884;17.410;2023-11-21T10:35:38;18.25;;;8.65;;
76290;SDS011;65100;46.884;17.410;2023-11-21T10:38:07;16.88;;;9.23;;
76290;SDS011;65100;46.884;17.410;2023-11-21T10:40:38;20.20;;;10.77;;
76290;SDS011;65100;46.884;17.410;2023-11-21T10:43:07;17.38;;;9.30;;
76290;SDS011;65100;46.884;17.410;2023-11-21T10:45:51;19.60;;;9.40;;
76290;SDS011;65100;46.884;17.410;2023-11-21T10:48:17;20.43;;;10.10;;
76290;SDS011;65100;46.884;17.410;2023-11-21T10:50:43;16.33;;;8.63;;
76290;SDS011;65100;46.884;17.410;2023-11-21T10:53:12;16.87;;;8.97;;
76290;SDS011;65100;46.884;17.410;2023-11-21T10:55:38;17.77;;;8.73;;
76290;SDS011;65100;46.884;17.410;2023-11-21T10:58:04;17.45;;;8.82;;
76290;SDS011;65100;46.884;17.410;2023-11-21T11:00:31;16.85;;;8.30;;
76290;SDS011;65100;46.884;17.410;2023-11-21T11:02:58;15.70;;;7.38;;
76290;SDS011;65100;46.884;17.410;2023-11-21T11:05:27;13.13;;;7.40;;
76290;SDS011;65100;46.884;17.410;2023-11-21T11:08:08;16.08;;;7.47;;
76290;SDS011;65100;46.884;17.410;2023-11-21T11:10:37;14.35;;;7.97;;
76290;SDS011;65100;46.884;17.410;2023-11-21T11:13:03;15.57;;;7.35;;
76290;SDS011;65100;46.884;17.410;2023-11-21T11:15:31;14.15;;;7.45;;
76290;SDS011;65100;46.884;17.410;2023-11-21T11:17:58;13.90;;;7.40;;
76290;SDS011;65100;46.884;17.410;2023-11-21T11:20:29;14.23;;;7.95;;
76290;SDS011;65100;46.884;17.410;2023-11-21T11:23:10;13.50;;;6.88;;
76290;SDS011;65100;46.884;17.410;2023-11-21T11:25:57;12.82;;;7.15;;
76290;SDS011;65100;46.884;17.410;2023-11-21T11:36:48;13.95;;;6.70;;
76290;SDS011;65100;46.884;17.410;2023-11-21T11:39:26;11.52;;;5.75;;
76290;SDS011;65100;46.884;17.410;2023-11-21T11:41:56;10.80;;;6.00;;
76290;SDS011;65100;46.884;17.410;2023-11-21T11:47:22;11.60;;;5.65;;
76290;SDS011;65100;46.884;17.410;2023-11-21T11:50:00;11.25;;;5.38;;
76290;SDS011;65100;46.884;17.410;2023-11-21T11:52:46;13.23;;;5.82;;
76290;SDS011;65100;46.884;17.410;2023-11-21T11:55:16;11.97;;;5.23;;
76290;SDS011;65100;46.884;17.410;2023-11-21T11:57:48;10.73;;;5.13;;
76290;SDS011;65100;46.884;17.410;2023-11-21T12:00:17;11.80;;;5.38;;
76290;SDS011;65100;46.884;17.410;2023-11-21T12:02:52;12.23;;;5.55;;
76290;SDS011;65100;46.884;17.410;2023-11-21T12:05:20;10.48;;;5.63;;
76290;SDS011;65100;46.884;17.410;2023-11-21T12:10:19;11.82;;;6.10;;
76290;SDS011;65100;46.884;17.410;2023-11-21T12:12:54;11.23;;;5.25;;
76290;SDS011;65100;46.884;17.410;2023-11-21T12:15:22;11.05;;;5.20;;
76290;SDS011;65100;46.884;17.410;2023-11-21T12:17:48;11.52;;;5.68;;
76290;SDS011;65100;46.884;17.410;2023-11-21T12:20:15;12.27;;;5.50;;
76290;SDS011;65100;46.884;17.410;2023-11-21T12:22:47;11.40;;;4.95;;
76290;SDS011;65100;46.884;17.410;2023-11-21T12:25:17;12.70;;;5.57;;
76290;SDS011;65100;46.884;17.410;2023-11-21T12:27:51;11.07;;;5.22;;
76290;SDS011;65100;46.884;17.410;2023-11-21T12:30:18;9.23;;;4.60;;
76290;SDS011;65100;46.884;17.410;2023-11-21T12:32:45;9.47;;;4.57;;
76290;SDS011;65100;46.884;17.410;2023-11-21T12:35:13;9.45;;;4.68;;
76290;SDS011;65100;46.884;17.410;2023-11-21T12:37:39;10.15;;;4.88;;
76290;SDS011;65100;46.884;17.410;2023-11-21T12:40:08;10.68;;;4.43;;
76290;SDS011;65100;46.884;17.410;2023-11-21T12:42:51;9.43;;;4.67;;
76290;SDS011;65100;46.884;17.410;2023-11-21T12:47:55;10.88;;;5.38;;
76290;SDS011;65100;46.884;17.410;2023-11-21T12:50:25;11.35;;;4.97;;
76290;SDS011;65100;46.884;17.410;2023-11-21T12:53:06;11.02;;;5.25;;
76290;SDS011;65100;46.884;17.410;2023-11-21T12:55:43;14.77;;;7.00;;
76290;SDS011;65100;46.884;17.410;2023-11-21T12:58:15;12.52;;;5.78;;
76290;SDS011;65100;46.884;17.410;2023-11-21T13:00:47;12.93;;;5.72;;
76290;SDS011;65100;46.884;17.410;2023-11-21T13:03:14;11.70;;;5.43;;
76290;SDS011;65100;46.884;17.410;2023-11-21T13:05:43;12.43;;;5.80;;
76290;SDS011;65100;46.884;17.410;2023-11-21T13:08:11;13.70;;;6.70;;
76290;SDS011;65100;46.884;17.410;2023-11-21T13:10:41;12.07;;;6.20;;
76290;SDS011;65100;46.884;17.410;2023-11-21T13:13:11;15.48;;;6.53;;
76290;SDS011;65100;46.884;17.410;2023-11-21T13:15:49;12.82;;;5.95;;
76290;SDS011;65100;46.884;17.410;2023-11-21T13:18:15;12.85;;;5.63;;
76290;SDS011;65100;46.884;17.410;2023-11-21T13:20:42;13.87;;;6.30;;
76290;SDS011;65100;46.884;17.410;2023-11-21T13:23:08;13.10;;;6.22;;
76290;SDS011;65100;46.884;17.410;2023-11-21T13:25:37;12.57;;;6.10;;
76290;SDS011;65100;46.884;17.410;2023-11-21T13:28:03;13.90;;;5.80;;
76290;SDS011;65100;46.884;17.410;2023-11-21T13:30:30;12.50;;;5.60;;
76290;SDS011;65100;46.884;17.410;2023-11-21T13:33:02;11.73;;;5.95;;
76290;SDS011;65100;46.884;17.410;2023-11-21T13:35:34;14.23;;;5.75;;
76290;SDS011;65100;46.884;17.410;2023-11-21T13:38:08;12.75;;;6.00;;
76290;SDS011;65100;46.884;17.410;2023-11-21T13:40:35;11.63;;;5.80;;
76290;SDS011;65100;46.884;17.410;2023-11-21T13:43:09;12.70;;;6.30;;
76290;SDS011;65100;46.884;17.410;2023-11-21T13:45:37;12.65;;;5.93;;
76290;SDS011;65100;46.884;17.410;2023-11-21T13:48:07;12.80;;;5.88;;
76290;SDS011;65100;46.884;17.410;2023-11-21T13:50:36;12.07;;;5.93;;
76290;SDS011;65100;46.884;17.410;2023-11-21T13:53:02;13.00;;;6.10;;
76290;SDS011;65100;46.884;17.410;2023-11-21T13:55:44;13.45;;;6.05;;
76290;SDS011;65100;46.884;17.410;2023-11-21T13:58:10;12.75;;;6.05;;
76290;SDS011;65100;46.884;17.410;2023-11-21T14:00:41;13.15;;;6.40;;
76290;SDS011;65100;46.884;17.410;2023-11-21T14:03:10;14.18;;;6.55;;
76290;SDS011;65100;46.884;17.410;2023-11-21T14:05:44;14.87;;;6.27;;
76290;SDS011;65100;46.884;17.410;2023-11-21T14:08:12;14.95;;;6.78;;
76290;SDS011;65100;46.884;17.410;2023-11-21T14:10:41;15.50;;;7.22;;
76290;SDS011;65100;46.884;17.410;2023-11-21T14:13:15;16.02;;;6.82;;
76290;SDS011;65100;46.884;17.410;2023-11-21T14:15:42;15.38;;;6.95;;
76290;SDS011;65100;46.884;17.410;2023-11-21T14:18:10;17.10;;;7.50;;
76290;SDS011;65100;46.884;17.410;2023-11-21T14:20:37;18.33;;;9.70;;
76290;SDS011;65100;46.884;17.410;2023-11-21T14:23:03;16.17;;;7.50;;
76290;SDS011;65100;46.884;17.410;2023-11-21T14:25:31;17.15;;;7.70;;
76290;SDS011;65100;46.884;17.410;2023-11-21T14:27:57;15.55;;;7.07;;
76290;SDS011;65100;46.884;17.410;2023-11-21T14:30:23;18.77;;;7.30;;
76290;SDS011;65100;46.884;17.410;2023-11-21T14:32:48;17.23;;;8.00;;
76290;SDS011;65100;46.884;17.410;2023-11-21T14:35:15;15.95;;;7.90;;
76290;SDS011;65100;46.884;17.410;2023-11-21T14:37:42;23.02;;;10.82;;